Time;durP1;ratioP1;P1;durP2;ratioP2;P2;SDS_P1;SDS_P2;PMS_P1;PMS_P2;Temp;Humidity;BMP_temperature;BMP_pressure;BME280_temperature;BME280_humidity;BME280_pressure;Samples;Min_cycle;Max_cycle;Signal;HPM_P1;HPM_P2
2023/03/24 00:00:10;;;;;;;;;3.67;3.67;;;;;16.32;65.64;99645.72;2103156;27;46008;-64
2023/03/24 00:01:10;;;;;;;;;3.75;3.00;;;;;16.31;65.76;99650.22;2105762;27;46711;-65
2023/03/24 00:02:12;;;;;;;;;4.00;4.00;;;;;16.30;65.92;99658.34;2104062;27;45571;-65
2023/03/24 00:03:15;;;;;;;;;3.25;3.25;;;;;16.31;65.84;99668.09;2103860;27;46559;-65
2023/03/24 00:04:16;;;;;;;;;3.00;3.00;;;;;16.31;65.82;99652.91;2101949;27;46552;-65
2023/03/24 00:05:19;;;;;;;;;5.00;3.00;;;;;16.32;65.85;99669.81;2107339;27;46865;-65
2023/03/24 00:06:21;;;;;;;;;4.00;4.00;;;;;16.31;65.58;99655.56;2098818;28;46702;-64
2023/03/24 00:07:22;;;;;;;;;3.50;3.50;;;;;16.34;65.29;99659.88;2095711;28;46193;-64
2023/03/24 00:08:23;;;;;;;;;4.00;3.00;;;;;16.33;65.96;99653.66;2101872;27;46907;-65
2023/03/24 00:09:23;;;;;;;;;4.00;4.00;;;;;16.34;65.89;99660.72;2098878;27;46590;-64
2023/03/24 00:10:29;;;;;;;;;5.33;4.67;;;;;16.34;65.38;99666.09;2105016;27;46689;-66
2023/03/24 00:11:33;;;;;;;;;4.25;3.75;;;;;16.34;65.59;99660.72;2108544;27;46420;-64
2023/03/24 00:12:37;;;;;;;;;6.50;4.00;;;;;16.34;65.82;99665.22;2098349;27;46436;-66
2023/03/24 00:13:38;;;;;;;;;2.50;2.50;;;;;16.33;65.63;99667.03;2097449;28;46407;-65
2023/03/24 00:14:40;;;;;;;;;2.33;2.33;;;;;16.32;65.27;99656.44;2100437;28;46652;-65
2023/03/24 00:15:40;;;;;;;;;3.00;3.00;;;;;16.34;65.58;99657.19;2099489;27;46465;-65
2023/03/24 00:16:41;;;;;;;;;3.00;3.00;;;;;16.32;65.53;99664.47;2097150;28;46309;-65
2023/03/24 00:17:41;;;;;;;;;4.00;4.00;;;;;16.34;65.47;99657.19;2090434;27;45988;-64
2023/03/24 00:18:42;;;;;;;;;4.00;4.00;;;;;16.33;65.93;99661.69;2101274;27;46188;-65
2023/03/24 00:19:44;;;;;;;;;7.00;4.33;;;;;16.33;65.93;99648.31;2104276;27;46338;-65
2023/03/24 00:20:44;;;;;;;;;3.75;3.75;;;;;16.34;65.63;99666.09;2101866;27;45615;-65
2023/03/24 00:21:45;;;;;;;;;2.33;2.00;;;;;16.33;65.58;99668.88;2099977;27;46763;-64
2023/03/24 00:22:49;;;;;;;;;3.33;2.33;;;;;16.34;65.54;99671.44;2099678;27;46265;-64
2023/03/24 00:23:53;;;;;;;;;4.25;4.00;;;;;16.34;65.42;99670.59;2097757;28;46364;-64
2023/03/24 00:24:53;;;;;;;;;4.50;3.75;;;;;16.34;65.55;99662.56;2097173;28;46464;-64
2023/03/24 00:26:03;;;;;;;;;4.33;4.00;;;;;16.34;65.79;99666.09;2096300;28;46461;-64
2023/03/24 00:27:04;;;;;;;;;5.00;5.00;;;;;16.33;65.79;99675.06;2101509;28;46427;-64
2023/03/24 00:28:06;;;;;;;;;3.00;3.00;;;;;16.34;65.79;99670.59;2110422;27;46564;-66
2023/03/24 00:29:08;;;;;;;;;4.50;4.25;;;;;16.35;66.01;99683.00;2102737;27;45650;-65
2023/03/24 00:30:10;;;;;;;;;3.50;3.50;;;;;16.34;65.39;99671.44;2095833;28;46866;-65
2023/03/24 00:31:14;;;;;;;;;5.00;5.00;;;;;16.35;65.66;99672.31;2097858;28;46920;-66
2023/03/24 00:32:14;;;;;;;;;4.25;4.25;;;;;16.35;65.38;99658.91;2107361;27;46852;-65
2023/03/24 00:33:14;;;;;;;;;3.00;3.00;;;;;16.35;65.58;99666.94;2113706;27;46650;-64
2023/03/24 00:34:17;;;;;;;;;4.00;4.00;;;;;16.35;65.61;99669.63;2104520;27;46237;-66
2023/03/24 00:35:17;;;;;;;;;3.75;3.75;;;;;16.35;65.49;99669.63;2097553;28;46888;-65
2023/03/24 00:36:20;;;;;;;;;2.00;2.00;;;;;16.34;65.73;99665.22;2106507;27;46171;-65
2023/03/24 00:37:22;;;;;;;;;3.50;3.50;;;;;16.34;65.32;99668.75;2107431;27;46751;-65
2023/03/24 00:38:23;;;;;;;;;2.50;2.50;;;;;16.34;65.70;99675.94;2106246;28;46374;-64
2023/03/24 00:39:23;;;;;;;;;5.33;3.33;;;;;16.33;65.90;99683.09;2086616;28;46763;-65
2023/03/24 00:40:24;;;;;;;;;3.33;3.33;;;;;16.34;65.92;99676.78;2086046;28;45832;-66
2023/03/24 00:41:26;;;;;;;;;4.00;3.00;;;;;16.34;65.63;99681.28;2088599;28;46783;-66
2023/03/24 00:42:26;;;;;;;;;2.25;2.25;;;;;16.33;65.49;99683.09;2102663;27;45812;-65
2023/03/24 00:43:28;;;;;;;;;3.00;3.00;;;;;16.35;65.79;99691.03;2097493;28;46840;-66
2023/03/24 00:44:28;;;;;;;;;2.75;2.25;;;;;16.35;65.71;99681.19;2098458;28;46666;-66
2023/03/24 00:45:33;;;;;;;;;2.00;2.00;;;;;16.36;65.54;99701.66;2096044;28;46636;-65
2023/03/24 00:46:34;;;;;;;;;2.00;2.00;;;;;16.35;65.73;99691.03;2112987;27;46223;-67
2023/03/24 00:47:37;;;;;;;;;2.00;1.00;;;;;16.36;65.71;99698.13;2106090;27;46653;-65
2023/03/24 00:48:40;;;;;;;;;2.00;2.00;;;;;16.36;65.65;99698.13;2107998;27;46266;-65
2023/03/24 00:49:41;;;;;;;;;1.75;1.75;;;;;16.35;65.63;99726.72;2104510;27;46953;-65
2023/03/24 00:50:49;;;;;;;;;2.00;2.00;;;;;16.35;65.53;99715.13;2104615;27;46154;-65
2023/03/24 00:51:50;;;;;;;;;1.75;1.75;;;;;16.34;65.92;99708.06;2104940;28;46026;-66
2023/03/24 00:52:52;;;;;;;;;2.00;2.00;;;;;16.32;65.57;99702.81;2106036;27;46206;-67
2023/03/24 00:53:56;;;;;;;;;2.00;2.00;;;;;16.32;65.75;99707.31;2093603;28;46301;-64
2023/03/24 00:54:57;;;;;;;;;2.00;2.00;;;;;16.31;65.90;99709.13;2103253;28;45866;-66
2023/03/24 00:55:57;;;;;;;;;2.00;2.00;;;;;16.32;65.82;99718.00;2110522;27;46365;-64
2023/03/24 00:57:01;;;;;;;;;2.67;2.67;;;;;16.32;65.59;99713.53;2105630;27;46426;-65
2023/03/24 00:58:03;;;;;;;;;1.75;1.75;;;;;16.34;65.86;99708.06;2114505;27;46622;-65
2023/03/24 00:59:03;;;;;;;;;2.00;2.00;;;;;16.33;65.89;99712.56;2104349;27;46284;-65
2023/03/24 01:00:11;;;;;;;;;2.33;2.33;;;;;16.34;65.79;99713.41;2106111;28;46052;-66
2023/03/24 01:01:11;;;;;;;;;2.50;2.50;;;;;16.35;65.90;99717.81;2102632;27;47126;-66
2023/03/24 01:02:12;;;;;;;;;4.33;3.00;;;;;16.34;65.90;99695.53;2106695;27;45536;-65
2023/03/24 01:03:13;;;;;;;;;2.67;2.67;;;;;16.35;66.04;99717.81;2106169;27;46331;-66
2023/03/24 01:04:13;;;;;;;;;0.75;0.00;;;;;16.33;65.60;99703.66;2106764;27;46818;-66
2023/03/24 01:05:16;;;;;;;;;2.00;2.00;;;;;16.32;65.80;99707.31;2107165;27;45208;-64
2023/03/24 01:06:17;;;;;;;;;1.50;1.50;;;;;16.31;66.17;99701.09;2105360;27;46965;-66
2023/03/24 01:07:17;;;;;;;;;2.50;2.00;;;;;16.30;65.83;99696.69;2105059;27;47104;-65
2023/03/24 01:08:20;;;;;;;;;2.00;2.00;;;;;16.28;65.87;99701.28;2105468;27;46308;-65
2023/03/24 01:09:21;;;;;;;;;1.75;1.25;;;;;16.30;66.09;99717.25;2098585;27;46684;-65
2023/03/24 01:10:25;;;;;;;;;1.00;1.00;;;;;16.31;65.69;99702.91;2106741;27;46382;-65
2023/03/24 01:11:25;;;;;;;;;1.50;1.50;;;;;16.30;65.80;99703.88;2105369;27;46585;-66
2023/03/24 01:12:28;;;;;;;;;1.00;1.00;;;;;16.28;65.87;99703.97;2106860;27;46894;-65
2023/03/24 01:13:29;;;;;;;;;2.25;2.25;;;;;16.28;66.14;99690.56;2104992;27;46724;-65
2023/03/24 01:14:32;;;;;;;;;2.00;2.00;;;;;16.30;65.99;99695.84;2103671;28;46703;-66
2023/03/24 01:15:35;;;;;;;;;1.50;1.50;;;;;16.30;66.21;99698.50;2107402;27;46506;-65
2023/03/24 01:16:35;;;;;;;;;2.25;2.25;;;;;16.31;66.07;99694.88;2108114;27;45996;-65
2023/03/24 01:17:36;;;;;;;;;2.00;2.00;;;;;16.31;65.96;99697.56;2102983;27;46329;-65
2023/03/24 01:18:39;;;;;;;;;2.00;2.00;;;;;16.30;65.76;99680.63;2098247;28;46612;-65
2023/03/24 01:19:40;;;;;;;;;2.00;2.00;;;;;16.31;65.75;99694.88;2089105;28;46827;-65
2023/03/24 01:20:44;;;;;;;;;3.33;3.33;;;;;16.31;65.58;99702.91;2098376;28;46477;-65
2023/03/24 01:21:44;;;;;;;;;1.50;1.50;;;;;16.30;66.01;99698.50;2101409;27;45941;-66
2023/03/24 01:22:45;;;;;;;;;2.00;2.00;;;;;16.27;65.93;99704.91;2104389;27;46789;-65
2023/03/24 01:23:46;;;;;;;;;2.67;2.00;;;;;16.27;66.14;99709.41;2108915;27;46792;-66
2023/03/24 01:24:48;;;;;;;;;4.25;2.25;;;;;16.27;65.75;99717.44;2107929;27;46603;-65
2023/03/24 01:25:50;;;;;;;;;2.50;2.50;;;;;16.26;66.16;99719.25;2104884;27;46006;-65
2023/03/24 01:26:51;;;;;;;;;3.00;3.00;;;;;16.24;66.20;99714.94;2106262;27;46389;-66
2023/03/24 01:27:52;;;;;;;;;2.00;2.00;;;;;16.22;66.35;99715.03;2107803;27;46595;-66
2023/03/24 01:28:52;;;;;;;;;1.75;1.00;;;;;16.19;66.27;99700.03;2104939;27;46854;-66
2023/03/24 01:29:58;;;;;;;;;2.00;2.00;;;;;16.19;66.14;99704.50;2105727;27;46422;-66
2023/03/24 01:30:58;;;;;;;;;2.25;2.25;;;;;16.19;66.05;99709.88;2104496;27;46910;-65
2023/03/24 01:31:59;;;;;;;;;2.00;2.00;;;;;16.19;66.11;99708.06;2105031;27;46186;-64
2023/03/24 01:32:59;;;;;;;;;2.00;2.00;;;;;16.19;66.54;99721.44;2105004;27;46603;-66
2023/03/24 01:34:00;;;;;;;;;3.33;3.33;;;;;16.20;66.12;99711.59;2105636;27;46811;-65
2023/03/24 01:35:00;;;;;;;;;2.67;2.67;;;;;16.19;65.81;99712.53;2105390;27;46691;-65
2023/03/24 01:36:01;;;;;;;;;2.00;2.00;;;;;16.18;65.98;99708.16;2105083;27;46657;-65
2023/03/24 01:37:02;;;;;;;;;2.00;2.00;;;;;16.18;65.81;99700.13;2082660;28;45807;-65
2023/03/24 01:38:07;;;;;;;;;1.67;1.67;;;;;16.17;65.91;99704.63;2089292;28;46848;-64
2023/03/24 01:39:07;;;;;;;;;2.00;1.00;;;;;16.16;66.16;99712.75;2100126;27;45701;-65
2023/03/24 01:40:10;;;;;;;;;1.00;1.00;;;;;16.15;66.23;99703.84;2106097;27;46550;-65
2023/03/24 01:41:10;;;;;;;;;1.75;1.75;;;;;16.15;65.78;99701.16;2109202;27;46701;-67
2023/03/24 01:42:17;;;;;;;;;1.00;1.00;;;;;16.16;65.76;99699.34;2105604;27;45648;-65
2023/03/24 01:43:26;;;;;;;;;1.75;1.75;;;;;16.16;65.98;99696.69;2107132;27;46490;-66
2023/03/24 01:44:29;;;;;;;;;2.00;2.00;;;;;16.16;65.63;99710.06;2095135;28;46919;-67
2023/03/24 01:45:41;;;;;;;;;2.25;2.25;;;;;16.16;65.93;99699.34;2099879;28;46569;-64
2023/03/24 01:46:41;;;;;;;;;1.25;1.25;;;;;16.17;65.80;99696.59;2106565;27;46742;-64
2023/03/24 01:47:42;;;;;;;;;1.33;1.33;;;;;16.18;65.76;99709.00;2107869;27;46573;-64
2023/03/24 01:49:05;;;;;;;;;1.00;1.00;;;;;16.18;65.71;99703.66;2110172;27;45352;-65
2023/03/24 01:50:05;;;;;;;;;0.25;0.25;;;;;16.18;65.41;99698.31;2106463;27;46008;-64
2023/03/24 01:51:20;;;;;;;;;1.00;1.00;;;;;16.17;65.56;99707.28;2102610;27;46028;-64
2023/03/24 01:52:26;;;;;;;;;2.00;1.75;;;;;16.17;65.17;99707.28;2108257;27;46125;-65
2023/03/24 01:53:29;;;;;;;;;3.00;1.50;;;;;16.17;65.47;99723.34;2107594;27;46679;-64
2023/03/24 01:54:37;;;;;;;;;0.75;0.75;;;;;16.18;65.44;99732.25;2107294;27;46443;-66
2023/03/24 01:55:38;;;;;;;;;4.00;2.75;;;;;16.16;65.32;99724.31;2100600;27;46047;-65
2023/03/24 01:56:49;;;;;;;;;1.00;1.00;;;;;16.18;65.23;99721.53;2104419;27;47131;-65
2023/03/24 01:57:56;;;;;;;;;2.00;2.00;;;;;16.19;65.12;99717.91;2105867;27;46322;-66
2023/03/24 01:59:01;;;;;;;;;3.25;1.50;;;;;16.18;65.32;99721.53;2103580;27;46618;-65
2023/03/24 02:00:08;;;;;;;;;2.25;2.00;;;;;16.17;65.49;99718.00;2108195;27;46290;-64
2023/03/24 02:01:09;;;;;;;;;2.75;1.75;;;;;16.18;65.55;99718.84;2094662;28;46498;-64
2023/03/24 02:02:12;;;;;;;;;0.75;0.75;;;;;16.17;65.09;99719.81;2101788;28;46207;-65
2023/03/24 02:03:17;;;;;;;;;1.50;1.50;;;;;16.18;65.42;99724.22;2099931;27;46291;-66
2023/03/24 02:04:17;;;;;;;;;1.00;1.00;;;;;16.18;65.43;99722.41;2100735;27;46504;-65
2023/03/24 02:05:18;;;;;;;;;2.67;1.00;;;;;16.18;64.88;99719.72;2090430;28;46448;-65
2023/03/24 02:06:21;;;;;;;;;0.67;0.67;;;;;16.20;65.50;99703.56;2086817;28;46709;-67
2023/03/24 02:07:21;;;;;;;;;1.00;1.00;;;;;16.21;65.23;99697.25;2093946;28;46617;-65
2023/03/24 02:08:32;;;;;;;;;0.67;0.67;;;;;16.22;65.19;99698.97;2103359;28;46356;-65
2023/03/24 02:09:32;;;;;;;;;1.00;1.00;;;;;16.21;65.15;99689.22;2103064;28;45172;-64
2023/03/24 02:10:35;;;;;;;;;2.67;2.00;;;;;16.19;64.78;99699.16;2104525;28;45273;-65
2023/03/24 02:11:37;;;;;;;;;2.25;2.00;;;;;16.17;64.92;99690.38;2110161;27;46812;-65
2023/03/24 02:12:38;;;;;;;;;2.25;2.25;;;;;16.17;65.13;99695.72;2104018;28;46744;-64
2023/03/24 02:13:39;;;;;;;;;1.50;1.50;;;;;16.16;64.85;99702.91;2103475;28;46713;-65
2023/03/24 02:14:39;;;;;;;;;3.00;3.00;;;;;16.17;65.38;99706.44;2106297;27;46929;-64
2023/03/24 02:16:01;;;;;;;;;2.00;2.00;;;;;16.17;65.02;99701.94;2102976;28;46646;-66
2023/03/24 02:17:20;;;;;;;;;2.00;1.50;;;;;16.15;65.52;99693.16;2102120;28;46785;-65
2023/03/24 02:18:48;;;;;;;;;1.00;1.00;;;;;16.15;65.33;99679.75;2103741;28;46088;-64
2023/03/24 02:20:11;;;;;;;;;1.75;1.75;;;;;16.15;64.95;99684.25;2103949;28;46586;-65
2023/03/24 02:21:36;;;;;;;;;1.00;0.75;;;;;16.16;65.20;99672.59;2100318;28;46922;-65
2023/03/24 02:23:11;;;;;;;;;1.75;1.75;;;;;16.16;65.14;99692.19;2104113;28;46717;-65
2023/03/24 02:24:40;;;;;;;;;1.00;1.00;;;;;16.16;65.15;99692.19;2103838;27;46414;-65
2023/03/24 02:25:50;;;;;;;;;2.00;0.75;;;;;16.15;65.25;99694.97;2103594;27;46969;-64
2023/03/24 02:27:05;;;;;;;;;3.75;2.25;;;;;16.13;64.89;99700.41;2095746;28;46718;-65
2023/03/24 02:28:12;;;;;;;;;1.75;1.75;;;;;16.13;65.44;99699.53;2094342;28;46542;-66
2023/03/24 02:29:39;;;;;;;;;0.50;0.50;;;;;16.11;65.13;99707.66;2103699;27;46793;-65
2023/03/24 02:31:07;;;;;;;;;1.50;1.25;;;;;16.12;65.56;99701.34;2107413;27;46659;-65
2023/03/24 02:32:29;;;;;;;;;2.25;2.25;;;;;16.12;65.39;99705.81;2101576;27;46754;-66
2023/03/24 02:34:07;;;;;;;;;4.00;2.00;;;;;16.12;65.64;99712.03;2105348;27;46412;-66
2023/03/24 02:35:32;;;;;;;;;1.75;1.75;;;;;16.12;65.25;99717.41;2101774;27;46603;-65
2023/03/24 02:37:11;;;;;;;;;1.50;1.50;;;;;16.13;65.65;99718.25;2103781;28;45298;-65
2023/03/24 02:38:46;;;;;;;;;2.00;2.00;;;;;16.14;65.80;99720.00;2100361;27;46370;-65
2023/03/24 02:40:10;;;;;;;;;1.75;1.75;;;;;16.15;65.24;99717.22;2099312;27;47574;-64
2023/03/24 02:41:19;;;;;;;;;1.50;1.50;;;;;16.14;66.00;99728.03;2096100;28;46989;-64
2023/03/24 02:42:36;;;;;;;;;2.00;2.00;;;;;16.17;65.85;99727.84;2105714;27;46504;-65
2023/03/24 02:43:43;;;;;;;;;1.75;1.75;;;;;16.14;65.77;99728.03;2098473;28;46431;-65
2023/03/24 02:45:06;;;;;;;;;2.25;1.50;;;;;16.14;65.71;99730.72;2109628;27;46470;-64
2023/03/24 02:46:35;;;;;;;;;2.00;2.00;;;;;16.14;65.74;99731.56;2103526;27;46945;-66
2023/03/24 02:48:09;;;;;;;;;2.25;2.25;;;;;16.13;65.89;99737.88;2102131;27;46990;-65
2023/03/24 02:49:32;;;;;;;;;3.00;3.00;;;;;16.13;65.80;99739.66;2097615;27;46213;-65
2023/03/24 02:50:50;;;;;;;;;1.75;1.75;;;;;16.11;65.56;99729.06;2103052;28;47199;-65
2023/03/24 02:51:59;;;;;;;;;2.75;1.00;;;;;16.10;65.97;99731.81;2109185;27;46574;-65
2023/03/24 02:53:14;;;;;;;;;3.25;3.00;;;;;16.08;65.32;99728.38;2103325;27;46656;-65
2023/03/24 02:54:30;;;;;;;;;2.00;2.00;;;;;16.06;65.76;99730.31;2101101;27;46934;-66
2023/03/24 02:55:51;;;;;;;;;2.00;2.00;;;;;16.03;65.53;99728.69;2096791;28;45943;-64
2023/03/24 02:56:57;;;;;;;;;2.50;2.00;;;;;16.02;65.84;99734.97;2102228;28;46061;-64
2023/03/24 02:58:06;;;;;;;;;1.00;1.00;;;;;16.01;65.57;99732.41;2104193;27;46714;-66
2023/03/24 02:59:11;;;;;;;;;2.25;2.25;;;;;16.00;66.18;99736.88;2099041;28;46486;-65
2023/03/24 03:00:17;;;;;;;;;1.75;1.75;;;;;16.00;66.03;99733.31;2102161;28;46427;-65
2023/03/24 03:01:31;;;;;;;;;2.25;2.25;;;;;16.00;66.09;99725.28;2105196;27;46512;-66
2023/03/24 03:02:36;;;;;;;;;2.50;2.50;;;;;16.00;65.78;99727.97;2098733;27;45759;-65
2023/03/24 03:03:48;;;;;;;;;3.00;1.75;;;;;16.00;66.08;99730.66;2101750;27;46585;-64
2023/03/24 03:05:02;;;;;;;;;3.25;3.00;;;;;15.99;65.61;99726.25;2106316;27;46729;-65
2023/03/24 03:06:25;;;;;;;;;3.75;3.00;;;;;15.98;65.92;99716.50;2103869;27;46478;-66
2023/03/24 03:07:32;;;;;;;;;3.00;1.00;;;;;15.98;66.34;99720.03;2104088;27;46375;-64
2023/03/24 03:08:35;;;;;;;;;2.75;2.75;;;;;16.01;66.07;99724.38;2093345;28;46505;-64
2023/03/24 03:09:40;;;;;;;;;2.50;2.50;;;;;16.01;66.14;99725.22;2098461;28;46761;-64
2023/03/24 03:10:44;;;;;;;;;4.00;4.00;;;;;16.03;66.01;99726.00;2107009;27;46406;-64
2023/03/24 03:11:48;;;;;;;;;1.75;1.75;;;;;16.04;66.36;99727.72;2101830;27;46287;-64
2023/03/24 03:12:55;;;;;;;;;1.75;1.00;;;;;16.06;65.83;99741.00;2097483;28;46479;-66
2023/03/24 03:14:01;;;;;;;;;1.50;1.50;;;;;16.06;65.60;99730.31;2095042;28;46419;-66
2023/03/24 03:15:07;;;;;;;;;1.25;0.25;;;;;16.05;65.83;99744.63;2101433;28;46185;-65
2023/03/24 03:16:13;;;;;;;;;2.00;2.00;;;;;16.03;65.21;99747.41;2106944;27;46475;-65
2023/03/24 03:17:22;;;;;;;;;0.75;0.75;;;;;16.01;65.12;99752.00;2104876;27;46490;-66
2023/03/24 03:18:24;;;;;;;;;2.00;2.00;;;;;16.00;65.04;99755.59;2100907;28;45648;-65
2023/03/24 03:19:32;;;;;;;;;0.75;0.75;;;;;15.98;64.97;99753.97;2107299;27;47263;-65
2023/03/24 03:20:41;;;;;;;;;0.00;0.00;;;;;15.95;65.19;99756.84;2097391;27;46778;-65
2023/03/24 03:21:43;;;;;;;;;2.25;2.25;;;;;15.90;65.17;99757.13;2100035;28;46477;-65
2023/03/24 03:22:58;;;;;;;;;0.25;0.25;;;;;15.87;65.09;99751.91;2101640;28;46537;-65
2023/03/24 03:24:14;;;;;;;;;0.75;0.75;;;;;15.83;65.11;99751.25;2105457;27;46587;-65
2023/03/24 03:25:21;;;;;;;;;0.00;0.00;;;;;15.81;65.21;99755.84;2099530;27;46676;-64
2023/03/24 03:26:27;;;;;;;;;0.00;0.00;;;;;15.80;65.17;99761.28;2109937;27;46511;-63
2023/03/24 03:27:38;;;;;;;;;0.75;0.75;;;;;15.79;65.22;99767.59;2104064;27;46797;-66
2023/03/24 03:28:48;;;;;;;;;1.00;1.00;;;;;15.79;65.19;99772.94;2105764;27;46393;-65
2023/03/24 03:29:54;;;;;;;;;1.25;1.25;;;;;15.78;65.06;99771.22;2101193;27;46598;-65
2023/03/24 03:30:58;;;;;;;;;1.25;1.25;;;;;15.72;64.96;99772.41;2104593;27;46827;-66
2023/03/24 03:32:06;;;;;;;;;0.75;0.75;;;;;15.71;65.00;99767.16;2109790;27;45705;-64
2023/03/24 03:33:37;;;;;;;;;0.00;0.00;;;;;15.65;64.74;99756.81;2104972;27;46724;-65
2023/03/24 03:34:41;;;;;;;;;0.00;0.00;;;;;15.60;64.56;99767.75;2102408;27;47043;-64
2023/03/24 03:35:49;;;;;;;;;0.00;0.00;;;;;15.57;64.54;99771.44;2111167;27;46650;-64
2023/03/24 03:37:20;;;;;;;;;0.50;0.50;;;;;15.54;64.90;99774.31;2110020;27;46152;-64
2023/03/24 03:38:33;;;;;;;;;1.00;1.00;;;;;15.52;64.41;99773.53;2101314;27;46500;-64
2023/03/24 03:39:44;;;;;;;;;0.25;0.25;;;;;15.51;64.80;99778.97;2108639;27;46455;-66
2023/03/24 03:40:58;;;;;;;;;0.75;0.75;;;;;15.48;64.11;99774.63;2102901;27;46275;-65
2023/03/24 03:41:59;;;;;;;;;0.00;0.00;;;;;15.47;64.11;99782.75;2104321;27;46410;-66
2023/03/24 03:42:59;;;;;;;;;0.00;0.00;;;;;15.46;63.79;99779.22;2105065;28;45631;-64
2023/03/24 03:44:00;;;;;;;;;0.33;0.33;;;;;15.43;64.11;99782.06;2102979;27;46950;-63
2023/03/24 03:45:00;;;;;;;;;0.00;0.00;;;;;15.42;63.99;99793.72;2107149;27;46565;-66
2023/03/24 03:46:05;;;;;;;;;0.00;0.00;;;;;15.40;64.17;99786.75;2105381;27;46369;-66
2023/03/24 03:47:05;;;;;;;;;0.00;0.00;;;;;15.38;64.33;99778.81;2106225;27;46079;-66
2023/03/24 03:48:06;;;;;;;;;0.00;0.00;;;;;15.38;64.17;99775.28;2104592;27;45677;-66
2023/03/24 03:49:07;;;;;;;;;0.00;0.00;;;;;15.36;63.93;99786.03;2097213;28;45602;-66
2023/03/24 03:50:08;;;;;;;;;0.25;0.25;;;;;15.35;64.26;99792.31;2096522;28;46498;-66
2023/03/24 03:51:10;;;;;;;;;0.00;0.00;;;;;15.34;63.85;99781.72;2105281;28;46455;-64
2023/03/24 03:52:12;;;;;;;;;0.50;0.25;;;;;15.34;64.24;99779.03;2106352;27;46648;-65
2023/03/24 03:53:16;;;;;;;;;0.00;0.00;;;;;15.36;64.29;99786.03;2106576;27;46925;-64
2023/03/24 03:54:18;;;;;;;;;0.75;0.25;;;;;15.36;63.96;99774.47;2104651;28;46239;-65
2023/03/24 03:55:18;;;;;;;;;0.00;0.00;;;;;15.35;63.99;99780.75;2103648;27;48220;-65
2023/03/24 03:56:22;;;;;;;;;0.50;0.50;;;;;15.32;63.91;99779.13;2104185;27;45860;-65
2023/03/24 03:57:23;;;;;;;;;0.00;0.00;;;;;15.30;63.85;99778.38;2103297;27;46682;-66
2023/03/24 03:58:23;;;;;;;;;0.00;0.00;;;;;15.32;63.69;99787.16;2105180;27;45134;-66
2023/03/24 03:59:34;;;;;;;;;0.00;0.00;;;;;15.30;63.65;99771.19;2104275;27;46821;-65
2023/03/24 04:00:36;;;;;;;;;0.00;0.00;;;;;15.31;64.13;99780.09;2106541;27;46524;-65
2023/03/24 04:01:36;;;;;;;;;0.00;0.00;;;;;15.31;64.23;99772.94;2103680;27;46832;-67
2023/03/24 04:02:55;;;;;;;;;0.00;0.00;;;;;15.31;63.72;99786.28;2105553;27;46233;-65
2023/03/24 04:04:19;;;;;;;;;0.00;0.00;;;;;15.29;63.66;99782.84;2106900;28;46678;-64
2023/03/24 04:05:28;;;;;;;;;0.25;0.25;;;;;15.27;63.58;99794.59;2107523;27;46785;-65
2023/03/24 04:07:06;;;;;;;;;0.00;0.00;;;;;15.24;63.64;99797.41;2107699;27;46754;-64
2023/03/24 04:08:13;;;;;;;;;1.00;1.00;;;;;15.23;64.07;99806.38;2106996;27;47130;-64
2023/03/24 04:09:23;;;;;;;;;0.75;0.75;;;;;15.20;63.60;99799.38;2105409;27;46970;-64
2023/03/24 04:10:54;;;;;;;;;1.00;0.75;;;;;15.21;63.73;99808.25;2098611;28;45915;-65
2023/03/24 04:12:25;;;;;;;;;0.75;0.75;;;;;15.20;63.78;99793.19;2096359;28;46759;-66
2023/03/24 04:13:34;;;;;;;;;0.50;0.00;;;;;15.18;63.73;99790.59;2103579;27;47029;-66
2023/03/24 04:15:12;;;;;;;;;1.75;1.00;;;;;15.17;63.87;99791.53;2105923;27;46246;-65
2023/03/24 04:16:32;;;;;;;;;0.00;0.00;;;;;15.19;63.66;99791.47;2108044;27;46361;-65
2023/03/24 04:17:49;;;;;;;;;0.00;0.00;;;;;15.20;63.72;99801.19;2106275;27;46477;-65
2023/03/24 04:19:31;;;;;;;;;0.75;0.75;;;;;15.19;63.90;99797.66;2107452;27;46572;-64
2023/03/24 04:20:46;;;;;;;;;1.00;1.00;;;;;15.17;63.92;99801.38;2107006;27;46620;-65
2023/03/24 04:21:54;;;;;;;;;1.00;0.00;;;;;15.16;63.54;99799.66;2099063;28;46549;-65
2023/03/24 04:23:13;;;;;;;;;1.00;0.25;;;;;15.14;63.41;99793.53;2101750;27;46463;-64
2023/03/24 04:24:16;;;;;;;;;0.00;0.00;;;;;15.11;63.60;99805.22;2097236;28;47012;-65
2023/03/24 04:25:28;;;;;;;;;0.25;0.25;;;;;15.11;63.53;99815.06;2097553;28;46737;-66
2023/03/24 04:26:41;;;;;;;;;0.50;0.50;;;;;15.11;63.29;99809.72;2107438;27;46225;-64
2023/03/24 04:28:15;;;;;;;;;0.75;0.75;;;;;15.12;63.58;99800.75;2104288;27;46427;-65
2023/03/24 04:29:35;;;;;;;;;0.75;0.00;;;;;15.12;63.68;99807.00;2106491;27;46676;-66
2023/03/24 04:30:44;;;;;;;;;0.75;0.75;;;;;15.14;63.66;99818.44;2106723;27;46423;-67
2023/03/24 04:31:55;;;;;;;;;1.00;1.00;;;;;15.13;63.54;99824.75;2107324;27;46829;-67
2023/03/24 04:33:03;;;;;;;;;0.75;0.75;;;;;15.14;63.30;99821.13;2108499;27;46351;-66
2023/03/24 04:34:19;;;;;;;;;0.00;0.00;;;;;15.15;63.76;99825.53;2109786;27;46373;-66
2023/03/24 04:35:42;;;;;;;;;3.00;1.00;;;;;15.14;63.45;99822.94;2108308;27;46763;-65
2023/03/24 04:37:12;;;;;;;;;1.00;1.00;;;;;15.14;63.26;99826.47;2114122;27;46937;-66
2023/03/24 04:38:17;;;;;;;;;2.00;0.75;;;;;15.15;63.12;99830.88;2068017;28;46782;-65
2023/03/24 04:39:26;;;;;;;;;0.25;0.25;;;;;15.17;63.12;99830.78;2064693;28;47082;-65
2023/03/24 04:40:31;;;;;;;;;0.00;0.00;;;;;15.17;62.90;99830.78;2060227;28;46878;-65
2023/03/24 04:41:32;;;;;;;;;1.50;1.00;;;;;15.18;62.95;99836.03;2063590;28;46497;-65
2023/03/24 04:42:38;;;;;;;;;0.00;0.00;;;;;15.18;62.80;99832.50;2063952;28;46767;-64
2023/03/24 04:43:38;;;;;;;;;0.75;0.75;;;;;15.17;62.60;99833.44;2072948;28;45249;-65
2023/03/24 04:44:40;;;;;;;;;0.00;0.00;;;;;15.17;63.01;99834.31;2074347;28;46108;-65
2023/03/24 04:45:41;;;;;;;;;2.75;0.00;;;;;15.18;62.20;99832.50;2055158;28;46379;-64
2023/03/24 04:46:41;;;;;;;;;0.33;0.33;;;;;15.17;62.07;99833.44;2057148;28;46700;-66
2023/03/24 04:47:53;;;;;;;;;2.00;1.67;;;;;15.15;62.71;99846.91;2057197;28;46556;-64
2023/03/24 04:48:53;;;;;;;;;1.00;0.00;;;;;15.13;62.30;99843.44;2056004;28;46704;-65
2023/03/24 04:50:02;;;;;;;;;0.00;0.00;;;;;15.12;62.39;99839.06;2063453;28;46834;-66
2023/03/24 04:51:03;;;;;;;;;0.25;0.25;;;;;15.11;62.40;99845.31;2064609;28;46955;-64
2023/03/24 04:52:05;;;;;;;;;0.33;0.33;;;;;15.11;62.29;99839.97;2062556;28;46637;-64
2023/03/24 04:53:07;;;;;;;;;0.00;0.00;;;;;15.09;62.28;99847.22;2065189;28;46753;-66
2023/03/24 04:54:07;;;;;;;;;0.25;0.00;;;;;15.10;62.71;99848.06;2065534;28;46262;-65
2023/03/24 04:55:48;;;;;;;;;0.33;0.33;;;;;15.09;62.66;99851.69;2064896;28;45657;-66
2023/03/24 04:56:51;;;;;;;;;2.50;1.00;;;;;15.07;62.07;99846.44;2032259;28;46606;-65
2023/03/24 04:57:52;;;;;;;;;0.50;0.50;;;;;15.07;62.66;99851.78;2032985;29;46422;-64
2023/03/24 04:58:52;;;;;;;;;0.00;0.00;;;;;15.06;62.18;99858.06;2032282;29;47155;-65
2023/03/24 04:59:53;;;;;;;;;2.67;1.67;;;;;15.05;62.30;99856.34;2031558;29;46102;-65
2023/03/24 05:00:55;;;;;;;;;0.67;0.00;;;;;15.05;62.81;99851.00;2031952;29;46419;-64
2023/03/24 05:01:55;;;;;;;;;0.25;0.25;;;;;15.07;62.74;99856.25;2031341;29;46597;-63
2023/03/24 05:02:56;;;;;;;;;1.00;1.00;;;;;15.06;62.61;99855.41;2032387;29;46393;-65
2023/03/24 05:03:57;;;;;;;;;0.00;0.00;;;;;15.07;62.61;99861.59;2031898;29;46831;-64
2023/03/24 05:04:57;;;;;;;;;0.25;0.25;;;;;15.07;62.65;99869.63;2031879;28;46742;-66
2023/03/24 05:05:58;;;;;;;;;0.00;0.00;;;;;15.06;62.32;99859.88;2032655;29;46635;-64
2023/03/24 05:06:58;;;;;;;;;0.67;0.67;;;;;15.06;62.69;99868.75;2032598;29;46552;-66
2023/03/24 05:07:59;;;;;;;;;0.00;0.00;;;;;15.07;62.85;99857.13;2024564;29;47100;-64
2023/03/24 05:08:59;;;;;;;;;0.33;0.33;;;;;15.07;62.48;99866.94;2024088;29;46243;-66
2023/03/24 05:09:59;;;;;;;;;0.00;0.00;;;;;15.06;62.47;99873.25;2032350;29;46128;-65
2023/03/24 05:11:00;;;;;;;;;1.00;0.00;;;;;15.03;62.49;99868.94;2031484;29;46585;-65
2023/03/24 05:12:01;;;;;;;;;0.00;0.00;;;;;15.00;62.76;99874.44;2030514;29;46358;-65
2023/03/24 05:13:02;;;;;;;;;0.00;0.00;;;;;15.00;62.73;99874.44;2030926;29;46273;-65
2023/03/24 05:14:02;;;;;;;;;2.00;0.25;;;;;14.97;62.48;99863.91;2023354;29;46758;-65
2023/03/24 05:15:03;;;;;;;;;1.33;0.33;;;;;14.95;62.94;99868.47;2022474;29;46616;-64
2023/03/24 05:16:04;;;;;;;;;0.00;0.00;;;;;14.93;62.76;99862.34;2054292;28;46735;-64